Novorossiysk, Russia
Current Conditions -  °F | °C
As of 3:00 AM on Tuesday 27 Jan 2015 (Local Time) from URKA Reporting Station
Broken Clouds Broken Clouds  
Wind Chill: 32°   Ceiling: 12000
Heat Index: 36°   Visibility: 6mi
Dew Point: 34°   Wind: 4mph
Humidity: 93%   Direction: 120°ESE
Pressure: 30.09"   Gusts: NA
Location:  44.72°N, 37.77°E
Report Text: URKA 270000Z 12002MPS 9999 SCT040 BKN120 02/01 Q1019 RMKQFE760/1014
Loading
Personal Weather Stations






























Interactive Weather Map New forecast layout! Learn more

10-Day Weather Forecast

Advertisements
Track Severe Weather on mobile